Time;durP1;ratioP1;P1;durP2;ratioP2;P2;SDS_P1;SDS_P2;PMS_P1;PMS_P2;Temp;Humidity;BMP_temperature;BMP_pressure;BME280_temperature;BME280_humidity;BME280_pressure;Samples;Min_cycle;Max_cycle;Signal;HPM_P1;HPM_P2
2023/03/02 00:01:48;;;;;;;;;;;20.30;55.40;;;;;;1544532;76;1943;-68
2023/03/02 00:03:50;;;;;;;;;;;20.30;55.40;;;;;;1520217;76;1829;-60
2023/03/02 00:05:52;;;;;;;;;;;20.30;55.50;;;;;;1530870;76;857;-61
2023/03/02 00:07:54;;;;;;;;;;;20.30;55.40;;;;;;1523279;76;731;-61
2023/03/02 00:09:56;;;;;;;;;;;20.30;55.30;;;;;;1533779;76;788;-61
2023/03/02 00:11:58;;;;;;;;;;;20.40;55.20;;;;;;1527535;76;1081;-60
2023/03/02 00:14:00;;;;;;;;;;;20.40;55.20;;;;;;1512006;76;1605;-61
2023/03/02 00:16:02;;;;;;;;;;;20.40;55.10;;;;;;1521069;76;659;-61
2023/03/02 00:18:04;;;;;;;;;;;20.50;55.10;;;;;;1520773;76;762;-60
2023/03/02 00:20:13;;;;;;;;;;;20.40;55.00;;;;;;1524365;76;2093;-60
2023/03/02 00:22:12;;;;;;;;;;;20.40;55.00;;;;;;1531188;76;1255;-61
2023/03/02 00:24:14;;;;;;;;;;;20.40;54.90;;;;;;1529639;76;707;-62
2023/03/02 00:26:16;;;;;;;;;;;20.50;55.10;;;;;;1533909;76;712;-63
2023/03/02 00:28:18;;;;;;;;;;;20.50;54.90;;;;;;1523009;76;1587;-62
2023/03/02 00:30:20;;;;;;;;;;;20.50;54.90;;;;;;1528892;76;708;-62
2023/03/02 00:32:22;;;;;;;;;;;20.50;54.90;;;;;;1525373;76;1128;-62
2023/03/02 00:34:24;;;;;;;;;;;20.50;54.90;;;;;;1533890;76;725;-63
2023/03/02 00:36:25;;;;;;;;;;;20.50;54.90;;;;;;1532516;76;759;-63
2023/03/02 00:38:27;;;;;;;;;;;20.50;55.00;;;;;;1520581;76;750;-62
2023/03/02 00:40:29;;;;;;;;;;;20.50;54.90;;;;;;1535998;76;1974;-62
2023/03/02 00:42:31;;;;;;;;;;;20.50;54.90;;;;;;1535965;76;1580;-62
2023/03/02 00:44:33;;;;;;;;;;;20.50;55.00;;;;;;1531557;76;723;-62
2023/03/02 00:46:35;;;;;;;;;;;20.50;55.10;;;;;;1522619;76;749;-61
2023/03/02 00:48:37;;;;;;;;;;;20.40;55.00;;;;;;1524249;76;669;-62
2023/03/02 00:50:40;;;;;;;;;;;20.40;55.00;;;;;;1522815;76;1116;-62
2023/03/02 00:52:41;;;;;;;;;;;20.40;55.00;;;;;;1548188;76;797;-62
2023/03/02 00:54:43;;;;;;;;;;;20.40;55.00;;;;;;1529489;76;716;-61
2023/03/02 00:56:45;;;;;;;;;;;20.40;55.00;;;;;;1523386;76;1579;-62
2023/03/02 00:58:47;;;;;;;;;;;20.40;55.00;;;;;;1509914;76;673;-62
2023/03/02 01:00:49;;;;;;;;;;;20.40;55.20;;;;;;1541441;76;1943;-62
2023/03/02 01:02:51;;;;;;;;;;;20.40;55.10;;;;;;1536526;76;773;-62
2023/03/02 01:04:53;;;;;;;;;;;20.40;55.10;;;;;;1524310;76;689;-63
2023/03/02 01:06:55;;;;;;;;;;;20.40;55.10;;;;;;1523841;76;618;-62
2023/03/02 01:08:57;;;;;;;;;;;20.40;54.90;;;;;;1531111;76;701;-62
2023/03/02 01:11:00;;;;;;;;;;;20.50;54.90;;;;;;1524081;76;1666;-63
2023/03/02 01:13:02;;;;;;;;;;;20.50;54.90;;;;;;1536455;76;680;-62
2023/03/02 01:15:04;;;;;;;;;;;20.40;54.80;;;;;;1512774;76;772;-62
2023/03/02 01:17:06;;;;;;;;;;;20.40;54.80;;;;;;1523668;76;705;-63
2023/03/02 01:19:08;;;;;;;;;;;20.40;54.70;;;;;;1514467;76;788;-62
2023/03/02 01:21:13;;;;;;;;;;;20.50;54.90;;;;;;1523773;76;1949;-62
2023/03/02 01:23:15;;;;;;;;;;;20.50;54.80;;;;;;1517802;76;1540;-62
2023/03/02 01:25:16;;;;;;;;;;;20.50;54.70;;;;;;1523156;76;744;-61
2023/03/02 01:27:19;;;;;;;;;;;20.50;54.70;;;;;;1526874;76;677;-62
2023/03/02 01:29:20;;;;;;;;;;;20.50;54.60;;;;;;1520693;76;819;-61
2023/03/02 01:31:22;;;;;;;;;;;20.50;54.80;;;;;;1510619;77;1136;-62
2023/03/02 01:33:24;;;;;;;;;;;20.40;55.10;;;;;;1509252;76;687;-63
2023/03/02 01:35:26;;;;;;;;;;;20.30;55.70;;;;;;1517432;76;683;-62
2023/03/02 01:37:28;;;;;;;;;;;20.20;56.00;;;;;;1525714;76;1541;-64
2023/03/02 01:39:30;;;;;;;;;;;20.10;56.50;;;;;;1545428;76;822;-62
2023/03/02 01:41:32;;;;;;;;;;;20.00;56.60;;;;;;1524561;76;1943;-63
2023/03/02 01:43:34;;;;;;;;;;;20.00;56.50;;;;;;1537771;76;703;-62
2023/03/02 01:45:40;;;;;;;;;;;20.00;56.60;;;;;;1529161;76;753;-62
2023/03/02 01:47:42;;;;;;;;;;;20.00;56.80;;;;;;1528354;76;1157;-62
2023/03/02 01:49:48;;;;;;;;;;;19.90;56.80;;;;;;1530085;76;668;-64
2023/03/02 01:51:51;;;;;;;;;;;20.00;56.80;;;;;;1524197;76;1541;-62
2023/03/02 01:53:54;;;;;;;;;;;20.00;56.40;;;;;;1533037;76;881;-64
2023/03/02 01:55:56;;;;;;;;;;;20.10;56.40;;;;;;1510019;76;688;-62
2023/03/02 01:57:58;;;;;;;;;;;20.10;56.30;;;;;;1527570;76;702;-62
2023/03/02 02:00:05;;;;;;;;;;;20.20;56.20;;;;;;1528558;76;729;-61
2023/03/02 02:02:06;;;;;;;;;;;20.10;56.30;;;;;;1532881;76;1928;-64
2023/03/02 02:04:07;;;;;;;;;;;20.20;56.30;;;;;;1522593;76;804;-63
2023/03/02 02:06:17;;;;;;;;;;;20.10;56.40;;;;;;1535143;76;1589;-63
2023/03/02 02:08:19;;;;;;;;;;;20.10;56.50;;;;;;1536848;76;766;-63
2023/03/02 02:10:21;;;;;;;;;;;20.10;56.60;;;;;;1513690;76;758;-63
2023/03/02 02:12:23;;;;;;;;;;;20.00;57.00;;;;;;1519572;76;1123;-64
2023/03/02 02:14:25;;;;;;;;;;;20.00;56.80;;;;;;1517871;76;729;-62
2023/03/02 02:16:27;;;;;;;;;;;20.00;57.10;;;;;;1534523;76;741;-64
2023/03/02 02:18:29;;;;;;;;;;;20.00;57.10;;;;;;1524398;76;790;-63
2023/03/02 02:20:41;;;;;;;;;;;19.90;57.10;;;;;;1520670;76;1548;-62
2023/03/02 02:22:44;;;;;;;;;;;19.90;57.10;;;;;;1520910;76;1903;-63
2023/03/02 02:24:48;;;;;;;;;;;20.00;56.80;;;;;;1528568;76;1867;-66
2023/03/02 02:26:52;;;;;;;;;;;20.00;56.60;;;;;;1527072;76;682;-62
2023/03/02 02:28:56;;;;;;;;;;;20.10;56.50;;;;;;1524828;76;1414;-60
2023/03/02 02:31:14;;;;;;;;;;;20.10;56.30;;;;;;1517551;76;1110;-61
2023/03/02 02:33:18;;;;;;;;;;;20.20;56.10;;;;;;1526831;76;682;-60
2023/03/02 02:35:21;;;;;;;;;;;20.20;56.00;;;;;;1523938;76;1654;-60
2023/03/02 02:37:24;;;;;;;;;;;20.20;55.90;;;;;;1522530;76;761;-61
2023/03/02 02:39:28;;;;;;;;;;;20.20;55.90;;;;;;1527002;76;735;-60
2023/03/02 02:41:31;;;;;;;;;;;20.30;55.90;;;;;;1518746;76;1932;-60
2023/03/02 02:43:33;;;;;;;;;;;20.30;55.90;;;;;;1531478;76;741;-62
2023/03/02 02:45:35;;;;;;;;;;;20.30;56.30;;;;;;1530375;76;700;-60
2023/03/02 02:47:36;;;;;;;;;;;20.10;56.20;;;;;;1522652;76;1550;-59
2023/03/02 02:49:38;;;;;;;;;;;20.10;56.60;;;;;;1542436;76;679;-60
2023/03/02 02:51:40;;;;;;;;;;;20.00;56.60;;;;;;1525565;76;1150;-60
2023/03/02 02:53:46;;;;;;;;;;;20.00;56.70;;;;;;1532323;76;669;-61
2023/03/02 02:55:49;;;;;;;;;;;20.00;56.70;;;;;;1508375;76;1890;-60
2023/03/02 02:57:51;;;;;;;;;;;20.00;56.60;;;;;;1516864;77;716;-61
2023/03/02 02:59:57;;;;;;;;;;;20.10;56.60;;;;;;1520299;76;786;-62
2023/03/02 03:01:59;;;;;;;;;;;20.10;56.60;;;;;;1519532;76;1944;-60
2023/03/02 03:04:02;;;;;;;;;;;20.10;56.60;;;;;;1516099;76;767;-60
2023/03/02 03:06:05;;;;;;;;;;;20.10;56.70;;;;;;1516596;76;682;-61
2023/03/02 03:08:07;;;;;;;;;;;20.00;56.50;;;;;;1529003;76;722;-59
2023/03/02 03:10:27;;;;;;;;;;;20.00;56.60;;;;;;1523643;76;711;-59
2023/03/02 03:12:29;;;;;;;;;;;20.00;56.60;;;;;;1521293;76;1115;-61
2023/03/02 03:14:33;;;;;;;;;;;20.00;56.60;;;;;;1512374;76;677;-60
2023/03/02 03:16:35;;;;;;;;;;;20.00;56.70;;;;;;1520559;76;1831;-61
2023/03/02 03:18:37;;;;;;;;;;;20.00;56.60;;;;;;1537891;76;773;-60
2023/03/02 03:20:40;;;;;;;;;;;20.00;56.50;;;;;;1525261;76;1134;-60
2023/03/02 03:22:41;;;;;;;;;;;20.00;56.60;;;;;;1517212;76;1884;-62
2023/03/02 03:24:43;;;;;;;;;;;20.00;56.60;;;;;;1523226;76;674;-62
2023/03/02 03:26:45;;;;;;;;;;;20.10;57.10;;;;;;1514886;76;706;-63
2023/03/02 03:28:47;;;;;;;;;;;20.00;56.60;;;;;;1527236;76;636;-62
2023/03/02 03:30:49;;;;;;;;;;;20.10;56.60;;;;;;1526998;76;1329;-62
2023/03/02 03:32:51;;;;;;;;;;;20.10;56.50;;;;;;1517405;76;675;-62
2023/03/02 03:34:53;;;;;;;;;;;20.10;56.40;;;;;;1517456;76;763;-62
2023/03/02 03:37:00;;;;;;;;;;;20.10;56.30;;;;;;1532204;76;773;-62
2023/03/02 03:38:58;;;;;;;;;;;20.20;56.20;;;;;;1518316;76;1660;-63
2023/03/02 03:41:00;;;;;;;;;;;20.20;56.00;;;;;;1533881;76;1133;-62
2023/03/02 03:43:02;;;;;;;;;;;20.20;56.00;;;;;;1510228;76;1945;-63
2023/03/02 03:45:04;;;;;;;;;;;20.20;55.90;;;;;;1517267;76;1567;-62
2023/03/02 03:47:06;;;;;;;;;;;20.20;55.80;;;;;;1514867;76;802;-62
2023/03/02 03:49:08;;;;;;;;;;;20.30;55.90;;;;;;1513619;76;692;-61
2023/03/02 03:51:10;;;;;;;;;;;20.20;55.80;;;;;;1526670;76;1143;-62
2023/03/02 03:53:12;;;;;;;;;;;20.20;55.90;;;;;;1541521;76;718;-61
2023/03/02 03:55:14;;;;;;;;;;;20.20;55.90;;;;;;1523143;76;766;-61
2023/03/02 03:57:16;;;;;;;;;;;20.20;55.80;;;;;;1529132;76;685;-62
2023/03/02 03:59:19;;;;;;;;;;;20.20;55.80;;;;;;1515678;76;1567;-61
2023/03/02 04:01:21;;;;;;;;;;;20.20;55.80;;;;;;1513560;76;1165;-61
2023/03/02 04:03:24;;;;;;;;;;;20.30;55.90;;;;;;1516868;76;1954;-62
2023/03/02 04:05:26;;;;;;;;;;;20.20;56.30;;;;;;1524258;76;994;-59
2023/03/02 04:07:28;;;;;;;;;;;20.20;55.90;;;;;;1540084;76;670;-60
2023/03/02 04:09:32;;;;;;;;;;;20.20;56.00;;;;;;1521727;76;684;-59
2023/03/02 04:11:34;;;;;;;;;;;20.20;56.10;;;;;;1522006;76;1658;-59
2023/03/02 04:13:35;;;;;;;;;;;20.10;56.10;;;;;;1523610;76;1557;-60
2023/03/02 04:15:38;;;;;;;;;;;20.10;56.30;;;;;;1529545;76;691;-59
2023/03/02 04:17:39;;;;;;;;;;;20.20;56.20;;;;;;1535756;76;679;-60
2023/03/02 04:19:41;;;;;;;;;;;20.20;56.00;;;;;;1511593;76;796;-59
2023/03/02 04:21:44;;;;;;;;;;;20.20;56.10;;;;;;1512032;76;1958;-58
2023/03/02 04:23:46;;;;;;;;;;;20.20;56.00;;;;;;1524284;76;730;-60
2023/03/02 04:25:48;;;;;;;;;;;20.20;56.00;;;;;;1515560;76;692;-59
2023/03/02 04:27:50;;;;;;;;;;;20.20;56.10;;;;;;1527074;76;1616;-59
2023/03/02 04:29:52;;;;;;;;;;;20.20;56.00;;;;;;1516806;76;715;-60
2023/03/02 04:31:53;;;;;;;;;;;20.20;56.00;;;;;;1516721;76;1142;-59
2023/03/02 04:33:55;;;;;;;;;;;20.20;55.90;;;;;;1514961;76;766;-59
2023/03/02 04:35:57;;;;;;;;;;;20.20;55.90;;;;;;1525441;76;691;-63
2023/03/02 04:37:59;;;;;;;;;;;20.30;56.00;;;;;;1516082;76;705;-62
2023/03/02 04:40:01;;;;;;;;;;;20.30;56.00;;;;;;1516518;76;758;-64
2023/03/02 04:42:03;;;;;;;;;;;20.30;56.00;;;;;;1523577;76;1958;-63
2023/03/02 04:44:05;;;;;;;;;;;20.30;56.00;;;;;;1522218;76;700;-60
2023/03/02 04:46:07;;;;;;;;;;;20.30;56.00;;;;;;1523309;76;690;-59
2023/03/02 04:48:09;;;;;;;;;;;20.20;55.80;;;;;;1522954;76;723;-59
2023/03/02 04:50:11;;;;;;;;;;;20.20;55.80;;;;;;1519284;76;703;-59
2023/03/02 04:52:13;;;;;;;;;;;20.20;55.70;;;;;;1528273;76;1133;-59
2023/03/02 04:54:22;;;;;;;;;;;20.20;55.80;;;;;;1520459;76;1545;-58
2023/03/02 04:56:24;;;;;;;;;;;20.20;55.90;;;;;;1516355;76;746;-60
2023/03/02 04:58:26;;;;;;;;;;;20.20;56.00;;;;;;1520722;76;737;-59
2023/03/02 05:00:28;;;;;;;;;;;20.20;56.00;;;;;;1523086;76;879;-60
2023/03/02 05:02:29;;;;;;;;;;;20.20;56.00;;;;;;1523136;76;1958;-58
2023/03/02 05:04:31;;;;;;;;;;;20.20;56.00;;;;;;1524118;76;705;-60
2023/03/02 05:06:33;;;;;;;;;;;20.10;56.10;;;;;;1519616;76;704;-59
2023/03/02 05:08:35;;;;;;;;;;;20.20;56.10;;;;;;1524137;76;1525;-60
2023/03/02 05:10:37;;;;;;;;;;;20.10;56.20;;;;;;1516879;76;684;-60
2023/03/02 05:12:57;;;;;;;;;;;20.10;56.10;;;;;;1521436;76;1140;-60
2023/03/02 05:14:58;;;;;;;;;;;20.20;56.30;;;;;;1516090;76;1633;-60
2023/03/02 05:16:59;;;;;;;;;;;20.10;56.30;;;;;;1516275;76;729;-61
2023/03/02 05:19:02;;;;;;;;;;;20.10;56.30;;;;;;1516500;76;800;-59
2023/03/02 05:21:04;;;;;;;;;;;20.20;56.30;;;;;;1519479;76;1159;-61
2023/03/02 05:23:06;;;;;;;;;;;20.20;56.20;;;;;;1518119;76;1926;-58
2023/03/02 05:25:08;;;;;;;;;;;20.30;56.30;;;;;;1514924;76;719;-58
2023/03/02 05:27:10;;;;;;;;;;;20.20;56.30;;;;;;1517885;76;692;-59
2023/03/02 05:29:12;;;;;;;;;;;20.20;56.20;;;;;;1513829;76;696;-58
2023/03/02 05:31:15;;;;;;;;;;;20.20;56.20;;;;;;1518717;76;1142;-59
2023/03/02 05:33:18;;;;;;;;;;;20.20;56.20;;;;;;1515579;76;1940;-60
2023/03/02 05:35:20;;;;;;;;;;;20.30;56.30;;;;;;1524310;76;760;-59
2023/03/02 05:37:22;;;;;;;;;;;20.20;56.10;;;;;;1524146;76;1556;-58
2023/03/02 05:39:24;;;;;;;;;;;20.30;56.20;;;;;;1525890;76;695;-59
2023/03/02 05:41:26;;;;;;;;;;;20.30;56.30;;;;;;1519728;76;1083;-59
2023/03/02 05:43:28;;;;;;;;;;;20.30;56.30;;;;;;1519076;76;1952;-59
2023/03/02 05:45:31;;;;;;;;;;;20.30;56.50;;;;;;1510661;76;723;-59
2023/03/02 05:47:33;;;;;;;;;;;20.10;58.10;;;;;;1514263;76;1810;-59
2023/03/02 05:49:35;;;;;;;;;;;20.00;58.10;;;;;;1527229;76;741;-60
2023/03/02 05:51:37;;;;;;;;;;;20.00;58.50;;;;;;1516280;76;1602;-61
2023/03/02 05:53:39;;;;;;;;;;;19.90;58.20;;;;;;1517419;76;734;-60
2023/03/02 05:55:40;;;;;;;;;;;19.80;58.20;;;;;;1551300;76;692;-60
2023/03/02 05:57:42;;;;;;;;;;;19.80;58.20;;;;;;1524463;76;723;-60
2023/03/02 05:59:45;;;;;;;;;;;19.80;58.20;;;;;;1522812;76;801;-60
2023/03/02 06:01:48;;;;;;;;;;;19.80;58.30;;;;;;1523152;76;1189;-60
2023/03/02 06:03:50;;;;;;;;;;;19.80;58.30;;;;;;1521845;76;1924;-61
2023/03/02 06:05:52;;;;;;;;;;;19.90;58.20;;;;;;1519446;76;1528;-60
2023/03/02 06:07:54;;;;;;;;;;;19.90;58.00;;;;;;1519155;76;703;-60
2023/03/02 06:09:56;;;;;;;;;;;19.90;58.10;;;;;;1514759;76;740;-59
2023/03/02 06:11:58;;;;;;;;;;;20.00;58.00;;;;;;1543805;76;1139;-59
2023/03/02 06:14:00;;;;;;;;;;;20.00;58.00;;;;;;1524124;76;663;-60
2023/03/02 06:16:02;;;;;;;;;;;20.10;58.00;;;;;;1526639;76;685;-59
2023/03/02 06:18:04;;;;;;;;;;;20.00;57.90;;;;;;1523683;76;709;-59
2023/03/02 06:20:09;;;;;;;;;;;20.00;57.80;;;;;;1536442;76;1551;-59
2023/03/02 06:22:11;;;;;;;;;;;20.10;57.90;;;;;;1530172;76;1158;-59
2023/03/02 06:24:13;;;;;;;;;;;20.10;57.80;;;;;;1519137;76;1921;-59
2023/03/02 06:26:15;;;;;;;;;;;20.10;57.80;;;;;;1522735;76;695;-59
2023/03/02 06:28:21;;;;;;;;;;;20.10;57.30;;;;;;1522543;76;714;-59
2023/03/02 06:30:21;;;;;;;;;;;20.20;57.10;;;;;;1523967;76;1193;-58
2023/03/02 06:32:23;;;;;;;;;;;20.20;57.20;;;;;;1519640;76;1061;-58
2023/03/02 06:34:25;;;;;;;;;;;20.20;57.30;;;;;;1520351;76;1571;-59
2023/03/02 06:36:27;;;;;;;;;;;20.30;57.40;;;;;;1520719;76;689;-59
2023/03/02 06:38:29;;;;;;;;;;;20.30;57.90;;;;;;1516529;76;655;-60
2023/03/02 06:40:31;;;;;;;;;;;20.20;58.00;;;;;;1517778;76;675;-59
2023/03/02 06:42:33;;;;;;;;;;;20.20;58.00;;;;;;1525938;76;1947;-58
2023/03/02 06:44:34;;;;;;;;;;;20.20;58.00;;;;;;1516171;76;677;-60
2023/03/02 06:46:37;;;;;;;;;;;20.30;58.00;;;;;;1524056;76;666;-59
2023/03/02 06:48:38;;;;;;;;;;;20.30;58.00;;;;;;1529222;76;1863;-60
2023/03/02 06:50:40;;;;;;;;;;;20.30;58.00;;;;;;1521078;76;1125;-59
2023/03/02 06:52:42;;;;;;;;;;;20.30;58.00;;;;;;1521925;76;557;-59
2023/03/02 06:54:44;;;;;;;;;;;20.30;58.00;;;;;;1517883;76;581;-60
2023/03/02 06:56:46;;;;;;;;;;;20.30;57.90;;;;;;1526983;76;662;-60
2023/03/02 06:58:48;;;;;;;;;;;20.20;57.20;;;;;;1526855;76;695;-60
2023/03/02 07:00:50;;;;;;;;;;;20.30;57.30;;;;;;1524802;76;1335;-60
2023/03/02 07:02:52;;;;;;;;;;;20.30;57.20;;;;;;1524386;76;1924;-60
2023/03/02 07:04:54;;;;;;;;;;;20.20;57.10;;;;;;1520207;76;685;-60
2023/03/02 07:06:55;;;;;;;;;;;20.20;57.10;;;;;;1523952;76;655;-60
2023/03/02 07:08:57;;;;;;;;;;;20.20;57.00;;;;;;1517492;76;738;-60
2023/03/02 07:10:59;;;;;;;;;;;20.20;56.90;;;;;;1515526;76;1131;-60
2023/03/02 07:13:01;;;;;;;;;;;20.20;57.00;;;;;;1527021;76;725;-60
2023/03/02 07:15:04;;;;;;;;;;;20.20;56.90;;;;;;1519064;76;1499;-62
2023/03/02 07:17:06;;;;;;;;;;;20.20;56.90;;;;;;1529889;76;721;-59
2023/03/02 07:19:09;;;;;;;;;;;20.10;57.10;;;;;;1532014;76;856;-59
2023/03/02 07:21:11;;;;;;;;;;;20.10;56.40;;;;;;1533156;76;1301;-59
2023/03/02 07:23:13;;;;;;;;;;;20.10;55.70;;;;;;1518178;76;1924;-58
2023/03/02 07:25:15;;;;;;;;;;;20.00;55.60;;;;;;1535378;76;708;-59
2023/03/02 07:27:17;;;;;;;;;;;20.10;55.70;;;;;;1513217;76;735;-60
2023/03/02 07:29:18;;;;;;;;;;;20.10;55.70;;;;;;1517548;76;1551;-61
2023/03/02 07:31:20;;;;;;;;;;;20.20;55.70;;;;;;1517614;76;1100;-60
2023/03/02 07:33:22;;;;;;;;;;;20.10;56.00;;;;;;1522343;76;707;-62
2023/03/02 07:35:24;;;;;;;;;;;20.10;55.80;;;;;;1518402;77;743;-59
2023/03/02 07:37:26;;;;;;;;;;;20.20;55.80;;;;;;1522562;76;675;-59
2023/03/02 07:39:28;;;;;;;;;;;20.10;55.70;;;;;;1518143;76;697;-59
2023/03/02 07:41:30;;;;;;;;;;;20.10;55.60;;;;;;1526063;76;1140;-60
2023/03/02 07:43:34;;;;;;;;;;;20.10;55.50;;;;;;1524193;76;1940;-60
2023/03/02 07:45:36;;;;;;;;;;;20.20;55.40;;;;;;1524067;76;1694;-60
2023/03/02 07:47:38;;;;;;;;;;;20.20;55.40;;;;;;1525268;76;735;-61
2023/03/02 07:49:40;;;;;;;;;;;20.20;55.30;;;;;;1526646;76;708;-60
2023/03/02 07:51:41;;;;;;;;;;;20.20;55.30;;;;;;1523897;76;1140;-60
2023/03/02 07:53:44;;;;;;;;;;;20.20;55.30;;;;;;1531025;76;905;-61
2023/03/02 07:55:45;;;;;;;;;;;20.20;55.20;;;;;;1524102;76;686;-61
2023/03/02 07:57:47;;;;;;;;;;;20.20;55.30;;;;;;1528193;76;1577;-59
2023/03/02 07:59:49;;;;;;;;;;;20.20;55.30;;;;;;1520757;76;685;-60
2023/03/02 08:01:51;;;;;;;;;;;20.20;55.20;;;;;;1525794;76;1162;-62
2023/03/02 08:03:53;;;;;;;;;;;20.30;55.30;;;;;;1523983;76;1944;-61
2023/03/02 08:05:55;;;;;;;;;;;20.30;55.20;;;;;;1511379;76;741;-60
2023/03/02 08:07:57;;;;;;;;;;;20.20;55.20;;;;;;1518622;76;741;-59
2023/03/02 08:09:59;;;;;;;;;;;20.20;55.20;;;;;;1529546;76;700;-58
2023/03/02 08:12:01;;;;;;;;;;;20.20;55.10;;;;;;1517480;76;1587;-58
2023/03/02 08:14:03;;;;;;;;;;;20.30;55.20;;;;;;1524734;76;678;-59
2023/03/02 08:16:05;;;;;;;;;;;20.30;55.00;;;;;;1522128;76;731;-59
2023/03/02 08:18:07;;;;;;;;;;;20.30;54.90;;;;;;1521225;76;832;-58
2023/03/02 08:20:09;;;;;;;;;;;20.30;54.90;;;;;;1516999;76;714;-58
2023/03/02 08:22:11;;;;;;;;;;;20.30;54.80;;;;;;1524554;76;1083;-58
2023/03/02 08:24:13;;;;;;;;;;;20.30;54.90;;;;;;1519361;76;1939;-59
2023/03/02 08:26:15;;;;;;;;;;;20.30;54.90;;;;;;1526195;76;1539;-59
2023/03/02 08:28:17;;;;;;;;;;;20.20;54.80;;;;;;1524608;76;739;-61
2023/03/02 08:30:19;;;;;;;;;;;20.20;54.70;;;;;;1517241;76;723;-59
2023/03/02 08:32:21;;;;;;;;;;;20.30;54.80;;;;;;1520969;76;1146;-60
2023/03/02 08:34:23;;;;;;;;;;;20.30;54.70;;;;;;1524893;76;742;-60
2023/03/02 08:36:24;;;;;;;;;;;20.30;54.80;;;;;;1514596;76;753;-59
2023/03/02 08:38:27;;;;;;;;;;;20.20;54.70;;;;;;1522907;76;701;-60
2023/03/02 08:40:28;;;;;;;;;;;20.30;54.80;;;;;;1521662;76;1603;-60
2023/03/02 08:42:30;;;;;;;;;;;20.30;54.70;;;;;;1515662;76;1059;-59
2023/03/02 08:44:32;;;;;;;;;;;20.30;54.70;;;;;;1514632;76;1933;-60
2023/03/02 08:46:34;;;;;;;;;;;20.20;54.70;;;;;;1521308;76;634;-59
2023/03/02 08:48:36;;;;;;;;;;;20.20;54.70;;;;;;1526556;76;708;-59
2023/03/02 08:50:38;;;;;;;;;;;20.20;54.70;;;;;;1519155;76;713;-59
2023/03/02 08:52:40;;;;;;;;;;;20.20;54.70;;;;;;1519322;76;680;-59
2023/03/02 08:54:41;;;;;;;;;;;20.20;54.70;;;;;;1517943;76;1535;-59
2023/03/02 08:56:43;;;;;;;;;;;20.20;54.70;;;;;;1530884;76;703;-59
2023/03/02 08:58:46;;;;;;;;;;;20.20;54.70;;;;;;1521127;76;736;-60
2023/03/02 09:00:48;;;;;;;;;;;20.20;54.70;;;;;;1526007;76;1188;-59
2023/03/02 09:02:49;;;;;;;;;;;20.20;54.70;;;;;;1519740;76;742;-62
2023/03/02 09:04:51;;;;;;;;;;;20.20;54.70;;;;;;1521652;76;1936;-62
2023/03/02 09:06:53;;;;;;;;;;;20.20;54.70;;;;;;1532134;76;739;-61
2023/03/02 09:08:55;;;;;;;;;;;20.20;54.70;;;;;;1521033;76;1560;-61
2023/03/02 09:10:57;;;;;;;;;;;20.20;54.80;;;;;;1526116;76;1075;-61
2023/03/02 09:12:59;;;;;;;;;;;20.10;54.80;;;;;;1527534;76;758;-61
2023/03/02 09:15:01;;;;;;;;;;;20.20;54.80;;;;;;1514255;76;726;-62
2023/03/02 09:17:04;;;;;;;;;;;20.20;54.80;;;;;;1530721;76;697;-60
2023/03/02 09:19:06;;;;;;;;;;;20.20;54.90;;;;;;1520133;76;752;-62
2023/03/02 09:21:08;;;;;;;;;;;20.10;54.90;;;;;;1524639;76;1154;-62
2023/03/02 09:23:11;;;;;;;;;;;20.10;54.90;;;;;;1515863;76;1584;-62
2023/03/02 09:25:13;;;;;;;;;;;20.10;54.90;;;;;;1529104;76;1914;-61
2023/03/02 09:27:15;;;;;;;;;;;20.10;54.90;;;;;;1521667;76;1248;-60
2023/03/02 09:29:16;;;;;;;;;;;20.10;54.90;;;;;;1520174;76;1126;-61
2023/03/02 09:31:18;;;;;;;;;;;20.10;54.90;;;;;;1525596;76;1227;-61
2023/03/02 09:33:20;;;;;;;;;;;20.10;54.90;;;;;;1529846;76;1150;-62
2023/03/02 09:35:22;;;;;;;;;;;20.10;54.80;;;;;;1521883;76;1484;-61
2023/03/02 09:37:24;;;;;;;;;;;20.20;54.90;;;;;;1530761;76;1512;-61
2023/03/02 09:39:26;;;;;;;;;;;20.10;55.00;;;;;;1533142;76;1111;-60
2023/03/02 09:41:32;;;;;;;;;;;20.00;54.90;;;;;;1526116;76;1276;-61
2023/03/02 09:43:45;;;;;;;;;;;20.00;54.90;;;;;;1495596;77;1989;-60
2023/03/02 09:45:58;;;;;;;;;;;20.00;54.90;;;;;;1535323;76;663;-62
2023/03/02 09:48:11;;;;;;;;;;;20.00;55.00;;;;;;1514289;76;753;-61
2023/03/02 09:50:17;;;;;;;;;;;20.00;55.00;;;;;;1520006;76;1907;-61
2023/03/02 09:52:37;;;;;;;;;;;20.00;55.00;;;;;;1531377;76;1136;-61
2023/03/02 09:54:39;;;;;;;;;;;20.00;55.10;;;;;;1520684;76;695;-61
2023/03/02 09:56:48;;;;;;;;;;;20.00;55.10;;;;;;1527761;76;722;-60
2023/03/02 09:58:58;;;;;;;;;;;19.90;55.10;;;;;;1519544;76;730;-60
2023/03/02 10:01:00;;;;;;;;;;;19.90;55.00;;;;;;1528346;76;1090;-59
2023/03/02 10:03:06;;;;;;;;;;;20.00;55.10;;;;;;1527636;76;948;-60
2023/03/02 10:05:10;;;;;;;;;;;19.90;55.00;;;;;;1521553;76;1944;-59
2023/03/02 10:07:12;;;;;;;;;;;20.00;55.00;;;;;;1541996;76;2051;-58
2023/03/02 10:09:14;;;;;;;;;;;20.00;55.00;;;;;;1520884;76;749;-58
2023/03/02 10:11:17;;;;;;;;;;;20.00;55.00;;;;;;1518531;76;1172;-58
2023/03/02 10:13:26;;;;;;;;;;;20.00;55.00;;;;;;1519335;76;756;-59
2023/03/02 10:15:32;;;;;;;;;;;20.00;54.90;;;;;;1522749;76;728;-59
2023/03/02 10:17:51;;;;;;;;;;;20.00;54.90;;;;;;1521209;76;913;-57
2023/03/02 10:19:53;;;;;;;;;;;20.00;54.90;;;;;;1515757;76;1643;-59
2023/03/02 10:22:00;;;;;;;;;;;20.00;54.90;;;;;;1521587;76;1822;-59
2023/03/02 10:24:09;;;;;;;;;;;20.00;55.00;;;;;;1523848;76;1911;-58
2023/03/02 10:26:19;;;;;;;;;;;20.00;55.00;;;;;;1517206;76;693;-58
2023/03/02 10:28:21;;;;;;;;;;;20.00;55.00;;;;;;1522375;77;787;-60
2023/03/02 10:30:26;;;;;;;;;;;20.10;55.00;;;;;;1525200;76;692;-58
2023/03/02 10:32:29;;;;;;;;;;;20.10;54.90;;;;;;1522386;76;1759;-58
2023/03/02 10:34:31;;;;;;;;;;;20.10;55.00;;;;;;1518538;76;2139;-59
2023/03/02 10:36:39;;;;;;;;;;;20.10;54.90;;;;;;1523820;76;727;-59
2023/03/02 10:38:41;;;;;;;;;;;20.10;54.90;;;;;;1523162;76;675;-59
2023/03/02 10:40:46;;;;;;;;;;;20.10;54.90;;;;;;1521293;76;1139;-61
2023/03/02 10:42:48;;;;;;;;;;;20.10;54.80;;;;;;1522799;76;1148;-58
2023/03/02 10:44:51;;;;;;;;;;;20.10;54.80;;;;;;1521642;76;1945;-62
2023/03/02 10:46:53;;;;;;;;;;;20.10;54.80;;;;;;1529131;76;1594;-61
2023/03/02 10:48:56;;;;;;;;;;;20.20;54.80;;;;;;1520221;76;1132;-61
2023/03/02 10:50:59;;;;;;;;;;;20.20;54.80;;;;;;1523913;76;1148;-60
2023/03/02 10:53:01;;;;;;;;;;;20.20;54.70;;;;;;1517096;76;1130;-60
2023/03/02 10:55:03;;;;;;;;;;;20.20;54.70;;;;;;1522010;76;1121;-62
2023/03/02 10:57:07;;;;;;;;;;;20.20;54.70;;;;;;1520990;76;1075;-61
2023/03/02 10:59:12;;;;;;;;;;;20.20;54.70;;;;;;1517188;76;1889;-61
2023/03/02 11:01:15;;;;;;;;;;;20.20;54.60;;;;;;1518325;76;1194;-60
2023/03/02 11:03:20;;;;;;;;;;;20.20;54.60;;;;;;1522024;76;697;-60
2023/03/02 11:05:23;;;;;;;;;;;20.20;54.60;;;;;;1529609;76;1928;-61
2023/03/02 11:07:26;;;;;;;;;;;20.20;54.50;;;;;;1500216;77;709;-65
2023/03/02 11:09:28;;;;;;;;;;;20.20;54.40;;;;;;1523363;76;721;-61
2023/03/02 11:11:30;;;;;;;;;;;20.20;54.50;;;;;;1523795;76;1162;-61
2023/03/02 11:13:33;;;;;;;;;;;20.20;54.50;;;;;;1523804;76;703;-61
2023/03/02 11:15:35;;;;;;;;;;;20.20;54.40;;;;;;1526519;76;732;-61
2023/03/02 11:17:37;;;;;;;;;;;20.20;54.40;;;;;;1522094;76;740;-61
2023/03/02 11:19:39;;;;;;;;;;;20.20;54.40;;;;;;1525289;76;726;-61
2023/03/02 11:21:43;;;;;;;;;;;20.20;54.40;;;;;;1522313;76;1157;-60
2023/03/02 11:24:03;;;;;;;;;;;20.30;54.50;;;;;;1517939;76;2152;-61
2023/03/02 11:26:06;;;;;;;;;;;20.20;54.30;;;;;;1522321;76;719;-61
2023/03/02 11:28:12;;;;;;;;;;;20.30;54.50;;;;;;1524203;76;720;-67
2023/03/02 11:30:18;;;;;;;;;;;20.20;54.40;;;;;;1521959;76;1987;-60
2023/03/02 11:32:38;;;;;;;;;;;20.30;54.50;;;;;;1514577;76;1175;-60
2023/03/02 11:34:42;;;;;;;;;;;20.20;54.30;;;;;;1516727;76;724;-60
2023/03/02 11:36:45;;;;;;;;;;;20.30;54.40;;;;;;1520953;77;1038;-60
2023/03/02 11:38:47;;;;;;;;;;;20.20;54.30;;;;;;1514676;76;698;-60
2023/03/02 11:40:51;;;;;;;;;;;20.30;54.50;;;;;;1512276;76;1104;-61
2023/03/02 11:42:53;;;;;;;;;;;20.20;54.30;;;;;;1519485;76;1091;-62
2023/03/02 11:44:54;;;;;;;;;;;20.20;54.30;;;;;;1520715;76;1940;-61
2023/03/02 11:46:58;;;;;;;;;;;20.20;54.30;;;;;;1514753;76;715;-60
2023/03/02 11:49:01;;;;;;;;;;;20.20;54.30;;;;;;1527775;76;884;-61
2023/03/02 11:51:04;;;;;;;;;;;20.20;54.20;;;;;;1519052;76;1162;-61
2023/03/02 11:53:06;;;;;;;;;;;20.20;54.20;;;;;;1521870;76;701;-66
2023/03/02 11:55:13;;;;;;;;;;;20.30;54.30;;;;;;1512803;76;772;-60
2023/03/02 11:57:22;;;;;;;;;;;20.20;54.20;;;;;;1523428;76;700;-61
2023/03/02 11:59:24;;;;;;;;;;;20.20;54.20;;;;;;1527287;76;723;-60
2023/03/02 12:01:26;;;;;;;;;;;20.20;54.30;;;;;;1525507;76;1413;-59
2023/03/02 12:03:29;;;;;;;;;;;20.20;54.20;;;;;;1527117;76;737;-60
2023/03/02 12:05:34;;;;;;;;;;;20.20;54.20;;;;;;1522277;76;1933;-61
2023/03/02 12:07:36;;;;;;;;;;;20.10;54.20;;;;;;1521653;76;709;-60
2023/03/02 12:09:39;;;;;;;;;;;20.20;54.20;;;;;;1526135;76;715;-59
2023/03/02 12:11:41;;;;;;;;;;;20.20;54.20;;;;;;1528423;76;1196;-60
2023/03/02 12:13:47;;;;;;;;;;;20.20;54.20;;;;;;1522561;76;653;-59